Airfield :
LOGIN :

Register | Disclaimer

   EN    FR    IT 

 










Legend :    VFR   Marginal VFR   IFR   Intensive IFR   Very Intensive IFR
Visi :
Ceiling :
>= 8 km
>= 3000ft
5 to 8 km
1000 to 3000 ft
1500m to 5 km
500 to 1000 ft
800 to 1500m
200 to 500 ft
< 800m
< 200 ft
Symbols :   Thunderstorms  Fog  Heavy snow  Heavy precipitations  Wind > 20 kt
SIGMETs :     Misc.  Thunderstorms  Icing  Turbulence  Mountain Waves  Volcanic Ashes







- Airport Elevation : 1989 ft
- IATA code : KLV


LKKV - Karlovy Vary

CURRENT METAR :
  • 142100Z 29003KT 250V310 9999 SCT025 BKN050 16/14 Q1018

EXPIRED METARs :
  • 142000Z 25005KT 9999 -RA BKN030 17/12 Q1017
  • 141900Z 26005KT 210V290 9999 FEW041 17/12 Q1017
  • 141830Z 26005KT 230V290 CAVOK 17/12 Q1016

TAF TAF LKKV
Valid from the 14 at 18:00 until the 16 at 00:00 UTC


141700Z 1418/1600 26008KT CAVOK
PROB30
TEMPO 1511/1517 33010KT 7000 SHRA SCT040TCU
BECMG 1517/1519 VRB02KT
No reported NOTAMs for that airfield.



MET'MAP, your aeronautical weather chart ! - Copyright ORBIFLY December 2007 - Disclaimer

ORBIFLY MET'MAP TEAM :

Programming & Development : Alexandra Zaïnal
Concept & Development : Baudouin d'Aumeries
Co-Development & Prog : Marc-Olivier Méhu
Technical & hardware support : Manuel Goepfert

Contact : metmap@orbifly.com




SOURCES & CREDITS :

   NOAA